sensor_id;sensor_type;location;lat;lon;timestamp;pressure;altitude;pressure_sealevel;temperature
48854;BMP280;34673;52.808;17.856;2022-11-15T00:00:16;100632.63;;;6.17
48854;BMP280;34673;52.808;17.856;2022-11-15T00:03:01;100635.22;;;6.18
48854;BMP280;34673;52.808;17.856;2022-11-15T00:05:47;100626.56;;;6.13
48854;BMP280;34673;52.808;17.856;2022-11-15T00:08:34;100631.78;;;6.16
48854;BMP280;34673;52.808;17.856;2022-11-15T00:11:20;100635.22;;;6.18
48854;BMP280;34673;52.808;17.856;2022-11-15T00:14:06;100631.84;;;6.22
48854;BMP280;34673;52.808;17.856;2022-11-15T00:16:52;100619.84;;;6.21
48854;BMP280;34673;52.808;17.856;2022-11-15T00:19:38;100621.50;;;6.16
48854;BMP280;34673;52.808;17.856;2022-11-15T00:22:24;100618.09;;;6.17
48854;BMP280;34673;52.808;17.856;2022-11-15T00:25:10;100607.72;;;6.11
48854;BMP280;34673;52.808;17.856;2022-11-15T00:27:56;100607.81;;;6.17
48854;BMP280;34673;52.808;17.856;2022-11-15T00:30:42;100612.94;;;6.17
48854;BMP280;34673;52.808;17.856;2022-11-15T00:33:28;100607.78;;;6.14
48854;BMP280;34673;52.808;17.856;2022-11-15T00:36:15;100617.19;;;6.14
48854;BMP280;34673;52.808;17.856;2022-11-15T00:39:04;100606.00;;;6.10
48854;BMP280;34673;52.808;17.856;2022-11-15T00:41:51;100605.25;;;6.17
48854;BMP280;34673;52.808;17.856;2022-11-15T00:44:37;100598.34;;;6.15
48854;BMP280;34673;52.808;17.856;2022-11-15T00:47:22;100595.72;;;6.10
48854;BMP280;34673;52.808;17.856;2022-11-15T00:50:08;100587.91;;;6.01
48854;BMP280;34673;52.808;17.856;2022-11-15T00:52:59;100587.16;;;6.08
48854;BMP280;34673;52.808;17.856;2022-11-15T00:55:46;100597.41;;;6.08
48854;BMP280;34673;52.808;17.856;2022-11-15T00:58:32;100586.25;;;6.08
48854;BMP280;34673;52.808;17.856;2022-11-15T01:01:18;100588.91;;;6.12
48854;BMP280;34673;52.808;17.856;2022-11-15T01:04:04;100582.00;;;6.10
48854;BMP280;34673;52.808;17.856;2022-11-15T01:06:49;100583.81;;;6.15
48854;BMP280;34673;52.808;17.856;2022-11-15T01:09:35;100587.22;;;6.14
48854;BMP280;34673;52.808;17.856;2022-11-15T01:12:21;100576.88;;;6.10
48854;BMP280;34673;52.808;17.856;2022-11-15T01:15:08;100565.78;;;6.11
48854;BMP280;34673;52.808;17.856;2022-11-15T01:17:54;100572.72;;;6.16
48854;BMP280;34673;52.808;17.856;2022-11-15T01:20:42;100577.88;;;6.19
48854;BMP280;34673;52.808;17.856;2022-11-15T01:23:28;100569.25;;;6.16
48854;BMP280;34673;52.808;17.856;2022-11-15T01:26:15;100566.75;;;6.20
48854;BMP280;34673;52.808;17.856;2022-11-15T01:29:02;100563.28;;;6.18
48854;BMP280;34673;52.808;17.856;2022-11-15T01:31:47;100558.94;;;6.13
48854;BMP280;34673;52.808;17.856;2022-11-15T01:34:33;100566.72;;;6.17
48854;BMP280;34673;52.808;17.856;2022-11-15T01:37:19;100542.53;;;6.00
48854;BMP280;34673;52.808;17.856;2022-11-15T01:40:05;100565.00;;;6.16
48854;BMP280;34673;52.808;17.856;2022-11-15T01:42:51;100564.09;;;6.14
48854;BMP280;34673;52.808;17.856;2022-11-15T01:45:37;100560.69;;;6.14
48854;BMP280;34673;52.808;17.856;2022-11-15T01:48:32;100550.31;;;6.06
48854;BMP280;34673;52.808;17.856;2022-11-15T01:51:21;100551.09;;;6.02
48854;BMP280;34673;52.808;17.856;2022-11-15T01:54:11;100561.41;;;6.05
48854;BMP280;34673;52.808;17.856;2022-11-15T01:57:02;100551.94;;;6.01
48854;BMP280;34673;52.808;17.856;2022-11-15T01:59:49;100556.25;;;6.05
48854;BMP280;34673;52.808;17.856;2022-11-15T02:02:36;100541.72;;;6.03
48854;BMP280;34673;52.808;17.856;2022-11-15T02:05:23;100532.28;;;6.03
48854;BMP280;34673;52.808;17.856;2022-11-15T02:08:10;100530.69;;;6.11
48854;BMP280;34673;52.808;17.856;2022-11-15T02:11:08;100529.88;;;6.15
48854;BMP280;34673;52.808;17.856;2022-11-15T02:13:56;100525.63;;;6.17
48854;BMP280;34673;52.808;17.856;2022-11-15T02:26:22;100513.53;;;6.10
48854;BMP280;34673;52.808;17.856;2022-11-15T02:29:11;100506.72;;;6.12
48854;BMP280;34673;52.808;17.856;2022-11-15T02:32:17;100511.88;;;6.15
48854;BMP280;34673;52.808;17.856;2022-11-15T02:41:24;100499.03;;;6.15
48854;BMP280;34673;52.808;17.856;2022-11-15T02:44:39;100488.66;;;6.08
48854;BMP280;34673;52.808;17.856;2022-11-15T02:47:27;100500.75;;;6.15
48854;BMP280;34673;52.808;17.856;2022-11-15T02:50:17;100499.94;;;6.17
48854;BMP280;34673;52.808;17.856;2022-11-15T02:53:04;100503.38;;;6.19
48854;BMP280;34673;52.808;17.856;2022-11-15T02:55:51;100499.97;;;6.20
48854;BMP280;34673;52.808;17.856;2022-11-15T03:04:58;100506.94;;;6.31
48854;BMP280;34673;52.808;17.856;2022-11-15T03:11:08;100492.34;;;6.28
48854;BMP280;34673;52.808;17.856;2022-11-15T03:14:13;100494.97;;;6.30
48854;BMP280;34673;52.808;17.856;2022-11-15T03:20:04;100491.38;;;6.18
48854;BMP280;34673;52.808;17.856;2022-11-15T03:22:53;100476.78;;;6.14
48854;BMP280;34673;52.808;17.856;2022-11-15T03:25:45;100487.94;;;6.16
48854;BMP280;34673;52.808;17.856;2022-11-15T03:28:47;100482.75;;;6.12
48854;BMP280;34673;52.808;17.856;2022-11-15T03:31:39;100479.28;;;6.08
48854;BMP280;34673;52.808;17.856;2022-11-15T03:35:00;100477.66;;;6.16
48854;BMP280;34673;52.808;17.856;2022-11-15T03:38:11;100476.00;;;6.21
48854;BMP280;34673;52.808;17.856;2022-11-15T03:41:04;100479.44;;;6.24
48854;BMP280;34673;52.808;17.856;2022-11-15T03:43:53;100473.50;;;6.25
48854;BMP280;34673;52.808;17.856;2022-11-15T03:46:48;100469.19;;;6.27
48854;BMP280;34673;52.808;17.856;2022-11-15T03:49:42;100467.53;;;6.29
48854;BMP280;34673;52.808;17.856;2022-11-15T03:52:32;100459.75;;;6.24
48854;BMP280;34673;52.808;17.856;2022-11-15T03:55:20;100453.75;;;6.24
48854;BMP280;34673;52.808;17.856;2022-11-15T03:58:06;100450.31;;;6.21
48854;BMP280;34673;52.808;17.856;2022-11-15T04:00:52;100452.88;;;6.21
48854;BMP280;34673;52.808;17.856;2022-11-15T04:03:38;100450.41;;;6.28
48854;BMP280;34673;52.808;17.856;2022-11-15T04:06:24;100439.28;;;6.27
48854;BMP280;34673;52.808;17.856;2022-11-15T04:09:10;100454.69;;;6.27
48854;BMP280;34673;52.808;17.856;2022-11-15T04:11:56;100440.13;;;6.28
48854;BMP280;34673;52.808;17.856;2022-11-15T04:14:42;100450.38;;;6.25
48854;BMP280;34673;52.808;17.856;2022-11-15T04:17:51;100430.66;;;6.25
48854;BMP280;34673;52.808;17.856;2022-11-15T04:20:37;100429.81;;;6.25
48854;BMP280;34673;52.808;17.856;2022-11-15T04:23:41;100425.53;;;6.25
48854;BMP280;34673;52.808;17.856;2022-11-15T04:26:53;100434.06;;;6.24
48854;BMP280;34673;52.808;17.856;2022-11-15T04:29:39;100439.25;;;6.26
48854;BMP280;34673;52.808;17.856;2022-11-15T04:32:25;100416.97;;;6.26
48854;BMP280;34673;52.808;17.856;2022-11-15T04:35:11;100426.38;;;6.26
48854;BMP280;34673;52.808;17.856;2022-11-15T04:37:58;100421.22;;;6.22
48854;BMP280;34673;52.808;17.856;2022-11-15T04:40:44;100417.78;;;6.20
48854;BMP280;34673;52.808;17.856;2022-11-15T04:43:30;100407.44;;;6.14
48854;BMP280;34673;52.808;17.856;2022-11-15T04:46:16;100412.56;;;6.14
48854;BMP280;34673;52.808;17.856;2022-11-15T04:49:03;100416.03;;;6.16
48854;BMP280;34673;52.808;17.856;2022-11-15T04:51:50;100407.44;;;6.14
48854;BMP280;34673;52.808;17.856;2022-11-15T04:54:36;100406.63;;;6.21
48854;BMP280;34673;52.808;17.856;2022-11-15T04:57:22;100408.34;;;6.21
48854;BMP280;34673;52.808;17.856;2022-11-15T05:00:11;100403.19;;;6.16
48854;BMP280;34673;52.808;17.856;2022-11-15T05:02:57;100398.88;;;6.15
48854;BMP280;34673;52.808;17.856;2022-11-15T05:06:02;100391.97;;;6.10
48854;BMP280;34673;52.808;17.856;2022-11-15T05:08:47;100389.50;;;6.17
48854;BMP280;34673;52.808;17.856;2022-11-15T05:11:34;100389.47;;;6.14
48854;BMP280;34673;52.808;17.856;2022-11-15T05:14:20;100385.22;;;6.16
48854;BMP280;34673;52.808;17.856;2022-11-15T05:17:05;100390.34;;;6.16
48854;BMP280;34673;52.808;17.856;2022-11-15T05:19:51;100387.78;;;6.16
48854;BMP280;34673;52.808;17.856;2022-11-15T05:22:37;100393.78;;;6.18
48854;BMP280;34673;52.808;17.856;2022-11-15T05:25:23;100381.78;;;6.17
48854;BMP280;34673;52.808;17.856;2022-11-15T05:28:09;100384.38;;;6.20
48854;BMP280;34673;52.808;17.856;2022-11-15T05:31:10;100379.22;;;6.17
48854;BMP280;34673;52.808;17.856;2022-11-15T05:33:58;100379.28;;;6.22
48854;BMP280;34673;52.808;17.856;2022-11-15T05:36:45;100372.41;;;6.21
48854;BMP280;34673;52.808;17.856;2022-11-15T05:39:31;100375.00;;;6.22
48854;BMP280;34673;52.808;17.856;2022-11-15T05:42:17;100387.00;;;6.27
48854;BMP280;34673;52.808;17.856;2022-11-15T05:45:05;100390.41;;;6.22
48854;BMP280;34673;52.808;17.856;2022-11-15T05:47:52;100393.78;;;6.21
48854;BMP280;34673;52.808;17.856;2022-11-15T05:50:42;100382.69;;;6.22
48854;BMP280;34673;52.808;17.856;2022-11-15T05:53:29;100386.97;;;6.24
48854;BMP280;34673;52.808;17.856;2022-11-15T05:56:16;100390.41;;;6.22
48854;BMP280;34673;52.808;17.856;2022-11-15T05:59:03;100386.94;;;6.20
48854;BMP280;34673;52.808;17.856;2022-11-15T06:01:49;100390.38;;;6.21
48854;BMP280;34673;52.808;17.856;2022-11-15T06:04:35;100380.09;;;6.19
48854;BMP280;34673;52.808;17.856;2022-11-15T06:07:21;100384.38;;;6.20
48854;BMP280;34673;52.808;17.856;2022-11-15T06:10:08;100390.34;;;6.16
48854;BMP280;34673;52.808;17.856;2022-11-15T06:12:58;100392.88;;;6.15
48854;BMP280;34673;52.808;17.856;2022-11-15T06:15:44;100388.53;;;6.06
48854;BMP280;34673;52.808;17.856;2022-11-15T06:18:32;100406.56;;;6.11
48854;BMP280;34673;52.808;17.856;2022-11-15T06:21:18;100405.66;;;6.10
48854;BMP280;34673;52.808;17.856;2022-11-15T06:24:05;100402.28;;;6.11
48854;BMP280;34673;52.808;17.856;2022-11-15T06:26:51;100392.81;;;6.06
48854;BMP280;34673;52.808;17.856;2022-11-15T06:29:36;100385.03;;;6.01
48854;BMP280;34673;52.808;17.856;2022-11-15T06:32:22;100403.97;;;6.09
48854;BMP280;34673;52.808;17.856;2022-11-15T06:35:08;100410.84;;;6.13
48854;BMP280;34673;52.808;17.856;2022-11-15T06:37:54;100415.16;;;6.14
48854;BMP280;34673;52.808;17.856;2022-11-15T06:40:40;100417.69;;;6.11
48854;BMP280;34673;52.808;17.856;2022-11-15T06:43:26;100426.22;;;6.10
48854;BMP280;34673;52.808;17.856;2022-11-15T06:46:12;100428.81;;;6.13
48854;BMP280;34673;52.808;17.856;2022-11-15T06:48:58;100428.81;;;6.13
48854;BMP280;34673;52.808;17.856;2022-11-15T06:51:49;100430.53;;;6.11
48854;BMP280;34673;52.808;17.856;2022-11-15T06:54:35;100410.75;;;6.04
48854;BMP280;34673;52.808;17.856;2022-11-15T06:57:21;100431.38;;;6.13
48854;BMP280;34673;52.808;17.856;2022-11-15T07:00:07;100429.63;;;6.09
48854;BMP280;34673;52.808;17.856;2022-11-15T07:02:53;100421.91;;;6.06
48854;BMP280;34673;52.808;17.856;2022-11-15T07:05:39;100415.06;;;6.07
48854;BMP280;34673;52.808;17.856;2022-11-15T07:08:27;100427.88;;;6.05
48854;BMP280;34673;52.808;17.856;2022-11-15T07:11:13;100422.72;;;6.05
48854;BMP280;34673;52.808;17.856;2022-11-15T07:14:00;100410.72;;;6.01
48854;BMP280;34673;52.808;17.856;2022-11-15T07:16:45;100379.69;;;5.86
48854;BMP280;34673;52.808;17.856;2022-11-15T07:19:32;100415.88;;;6.04
48854;BMP280;34673;52.808;17.856;2022-11-15T07:22:17;100398.63;;;5.94
48854;BMP280;34673;52.808;17.856;2022-11-15T07:25:04;100391.72;;;5.90
48854;BMP280;34673;52.808;17.856;2022-11-15T07:27:59;100389.16;;;5.90
48854;BMP280;34673;52.808;17.856;2022-11-15T07:30:45;100405.56;;;5.98
48854;BMP280;34673;52.808;17.856;2022-11-15T07:33:31;100403.91;;;6.03
48854;BMP280;34673;52.808;17.856;2022-11-15T07:36:18;100403.91;;;6.03
48854;BMP280;34673;52.808;17.856;2022-11-15T07:39:04;100417.53;;;5.99
48854;BMP280;34673;52.808;17.856;2022-11-15T07:41:50;100415.84;;;6.01
48854;BMP280;34673;52.808;17.856;2022-11-15T07:44:56;100403.81;;;5.97
48854;BMP280;34673;52.808;17.856;2022-11-15T07:47:45;100397.00;;;5.99
48854;BMP280;34673;52.808;17.856;2022-11-15T07:50:32;100401.19;;;5.92
48854;BMP280;34673;52.808;17.856;2022-11-15T07:53:18;100408.09;;;5.96
48854;BMP280;34673;52.808;17.856;2022-11-15T07:56:06;100398.66;;;5.97
48854;BMP280;34673;52.808;17.856;2022-11-15T07:58:53;100395.28;;;5.98
48854;BMP280;34673;52.808;17.856;2022-11-15T08:01:39;100393.63;;;6.03
48854;BMP280;34673;52.808;17.856;2022-11-15T08:04:25;100379.00;;;5.96
48854;BMP280;34673;52.808;17.856;2022-11-15T08:07:11;100402.25;;;6.08
48854;BMP280;34673;52.808;17.856;2022-11-15T08:09:57;100392.00;;;6.11
48854;BMP280;34673;52.808;17.856;2022-11-15T08:12:44;100401.44;;;6.14
48854;BMP280;34673;52.808;17.856;2022-11-15T08:15:31;100400.63;;;6.16
48854;BMP280;34673;52.808;17.856;2022-11-15T08:18:17;100386.88;;;6.11
48854;BMP280;34673;52.808;17.856;2022-11-15T08:21:03;100395.50;;;6.19
48854;BMP280;34673;52.808;17.856;2022-11-15T08:23:49;100390.28;;;6.13
48854;BMP280;34673;52.808;17.856;2022-11-15T08:26:35;100394.59;;;6.16
48854;BMP280;34673;52.808;17.856;2022-11-15T08:29:21;100371.47;;;6.11
48854;BMP280;34673;52.808;17.856;2022-11-15T08:32:07;100380.09;;;6.19
48854;BMP280;34673;52.808;17.856;2022-11-15T08:34:53;100381.81;;;6.20
48854;BMP280;34673;52.808;17.856;2022-11-15T08:37:39;100374.97;;;6.19
48854;BMP280;34673;52.808;17.856;2022-11-15T08:40:25;100381.81;;;6.20
48854;BMP280;34673;52.808;17.856;2022-11-15T08:43:12;100386.94;;;6.20
48854;BMP280;34673;52.808;17.856;2022-11-15T08:45:58;100356.91;;;6.12
48854;BMP280;34673;52.808;17.856;2022-11-15T08:48:45;100373.34;;;6.28
48854;BMP280;34673;52.808;17.856;2022-11-15T08:51:31;100373.34;;;6.31
48854;BMP280;34673;52.808;17.856;2022-11-15T08:54:17;100368.28;;;6.40
48854;BMP280;34673;52.808;17.856;2022-11-15T08:57:02;100353.72;;;6.36
48854;BMP280;34673;52.808;17.856;2022-11-15T08:59:48;100364.81;;;6.35
48854;BMP280;34673;52.808;17.856;2022-11-15T09:02:34;100366.56;;;6.36
48854;BMP280;34673;52.808;17.856;2022-11-15T09:05:22;100364.75;;;6.26
48854;BMP280;34673;52.808;17.856;2022-11-15T09:08:08;100364.72;;;6.24
48854;BMP280;34673;52.808;17.856;2022-11-15T09:11:14;100373.25;;;6.21
48854;BMP280;34673;52.808;17.856;2022-11-15T09:14:03;100369.84;;;6.22
48854;BMP280;34673;52.808;17.856;2022-11-15T09:16:49;100357.91;;;6.28
48854;BMP280;34673;52.808;17.856;2022-11-15T09:19:35;100363.88;;;6.25
48854;BMP280;34673;52.808;17.856;2022-11-15T09:22:22;100351.03;;;6.22
48854;BMP280;34673;52.808;17.856;2022-11-15T09:25:08;100354.50;;;6.32
48854;BMP280;34673;52.808;17.856;2022-11-15T09:27:55;100349.34;;;6.29
48854;BMP280;34673;52.808;17.856;2022-11-15T09:30:42;100347.69;;;6.34
48854;BMP280;34673;52.808;17.856;2022-11-15T09:33:28;100347.72;;;6.37
48854;BMP280;34673;52.808;17.856;2022-11-15T09:36:15;100347.69;;;6.34
48854;BMP280;34673;52.808;17.856;2022-11-15T09:39:02;100342.56;;;6.34
48854;BMP280;34673;52.808;17.856;2022-11-15T09:48:40;100335.72;;;6.36
48854;BMP280;34673;52.808;17.856;2022-11-15T09:51:45;100337.41;;;6.34
48854;BMP280;34673;52.808;17.856;2022-11-15T09:54:29;100329.75;;;6.38
48854;BMP280;34673;52.808;17.856;2022-11-15T10:05:49;100334.16;;;6.53
48854;BMP280;34673;52.808;17.856;2022-11-15T10:08:24;100329.00;;;6.53
48854;BMP280;34673;52.808;17.856;2022-11-15T10:10:56;100311.78;;;6.43
48854;BMP280;34673;52.808;17.856;2022-11-15T10:13:46;100317.84;;;6.50
48854;BMP280;34673;52.808;17.856;2022-11-15T10:24:41;100307.63;;;6.54
48854;BMP280;34673;52.808;17.856;2022-11-15T10:27:16;100293.03;;;6.56
48854;BMP280;34673;52.808;17.856;2022-11-15T10:29:47;100299.94;;;6.57
48854;BMP280;34673;52.808;17.856;2022-11-15T10:32:17;100295.63;;;6.55
48854;BMP280;34673;52.808;17.856;2022-11-15T10:34:46;100294.78;;;6.54
48854;BMP280;34673;52.808;17.856;2022-11-15T10:37:14;100298.16;;;6.53
48854;BMP280;34673;52.808;17.856;2022-11-15T10:39:42;100284.41;;;6.48
48854;BMP280;34673;52.808;17.856;2022-11-15T10:42:35;100290.38;;;6.42
48854;BMP280;34673;52.808;17.856;2022-11-15T10:45:23;100286.06;;;6.37
48854;BMP280;34673;52.808;17.856;2022-11-15T10:47:50;100287.72;;;6.32
48854;BMP280;34673;52.808;17.856;2022-11-15T10:50:30;100280.91;;;6.34
48854;BMP280;34673;52.808;17.856;2022-11-15T10:52:58;100292.97;;;6.41
48854;BMP280;34673;52.808;17.856;2022-11-15T10:55:33;100280.09;;;6.41
48854;BMP280;34673;52.808;17.856;2022-11-15T10:58:05;100280.94;;;6.40
48854;BMP280;34673;52.808;17.856;2022-11-15T11:00:36;100284.38;;;6.42
48854;BMP280;34673;52.808;17.856;2022-11-15T11:05:48;100298.19;;;6.55
48854;BMP280;34673;52.808;17.856;2022-11-15T11:10:55;100287.09;;;6.60
48854;BMP280;34673;52.808;17.856;2022-11-15T11:13:31;100286.22;;;6.61
48854;BMP280;34673;52.808;17.856;2022-11-15T11:24:15;100286.31;;;6.71
48854;BMP280;34673;52.808;17.856;2022-11-15T11:26:54;100272.59;;;6.72
48854;BMP280;34673;52.808;17.856;2022-11-15T11:29:44;100276.03;;;6.74
48854;BMP280;34673;52.808;17.856;2022-11-15T11:32:50;100272.63;;;6.75
48854;BMP280;34673;52.808;17.856;2022-11-15T11:35:39;100271.78;;;6.77
48854;BMP280;34673;52.808;17.856;2022-11-15T11:38:50;100267.50;;;6.81
48854;BMP280;34673;52.808;17.856;2022-11-15T11:44:41;100254.66;;;6.82
48854;BMP280;34673;52.808;17.856;2022-11-15T11:47:23;100256.41;;;6.88
48854;BMP280;34673;52.808;17.856;2022-11-15T11:49:54;100237.50;;;6.77
48854;BMP280;34673;52.808;17.856;2022-11-15T11:52:34;100249.53;;;6.82
48854;BMP280;34673;52.808;17.856;2022-11-15T11:55:18;100253.81;;;6.82
48854;BMP280;34673;52.808;17.856;2022-11-15T12:03:46;100240.94;;;6.77
48854;BMP280;34673;52.808;17.856;2022-11-15T12:09:17;100237.50;;;6.77
48854;BMP280;34673;52.808;17.856;2022-11-15T12:16:54;100210.00;;;6.63
48854;BMP280;34673;52.808;17.856;2022-11-15T12:19:22;100247.81;;;6.81
48854;BMP280;34673;52.808;17.856;2022-11-15T12:22:02;100241.81;;;6.84
48854;BMP280;34673;52.808;17.856;2022-11-15T12:24:41;100237.53;;;6.83
48854;BMP280;34673;52.808;17.856;2022-11-15T12:29:41;100225.53;;;6.86
48854;BMP280;34673;52.808;17.856;2022-11-15T12:32:31;100229.81;;;6.86
48854;BMP280;34673;52.808;17.856;2022-11-15T12:35:01;100217.84;;;6.88
48854;BMP280;34673;52.808;17.856;2022-11-15T12:45:44;100216.13;;;6.87
48854;BMP280;34673;52.808;17.856;2022-11-15T12:56:15;100212.69;;;6.85
48854;BMP280;34673;52.808;17.856;2022-11-15T12:58:49;100212.69;;;6.85
48854;BMP280;34673;52.808;17.856;2022-11-15T13:07:05;100207.56;;;6.90
48854;BMP280;34673;52.808;17.856;2022-11-15T13:14:56;100208.47;;;6.99
48854;BMP280;34673;52.808;17.856;2022-11-15T13:17:33;100204.19;;;6.98
48854;BMP280;34673;52.808;17.856;2022-11-15T13:22:42;100209.31;;;6.95
48854;BMP280;34673;52.808;17.856;2022-11-15T13:27:58;100199.03;;;6.92
48854;BMP280;34673;52.808;17.856;2022-11-15T13:30:32;100187.00;;;6.91
48854;BMP280;34673;52.808;17.856;2022-11-15T13:33:07;100192.13;;;6.91
48854;BMP280;34673;52.808;17.856;2022-11-15T13:35:39;100185.28;;;6.87
48854;BMP280;34673;52.808;17.856;2022-11-15T13:38:39;100193.00;;;6.90
48854;BMP280;34673;52.808;17.856;2022-11-15T13:41:20;100188.69;;;6.83
48854;BMP280;34673;52.808;17.856;2022-11-15T13:43:50;100186.13;;;6.81
48854;BMP280;34673;52.808;17.856;2022-11-15T13:49:14;100181.75;;;6.73
48854;BMP280;34673;52.808;17.856;2022-11-15T13:51:47;100174.91;;;6.65
48854;BMP280;34673;52.808;17.856;2022-11-15T13:59:34;100181.72;;;6.60
48854;BMP280;34673;52.808;17.856;2022-11-15T14:02:14;100168.00;;;6.61
48854;BMP280;34673;52.808;17.856;2022-11-15T14:04:51;100176.59;;;6.63
48854;BMP280;34673;52.808;17.856;2022-11-15T14:07:22;100179.19;;;6.65
48854;BMP280;34673;52.808;17.856;2022-11-15T14:09:50;100169.75;;;6.62
48854;BMP280;34673;52.808;17.856;2022-11-15T14:12:35;100172.25;;;6.56
48854;BMP280;34673;52.808;17.856;2022-11-15T14:15:35;100175.72;;;6.57
48854;BMP280;34673;52.808;17.856;2022-11-15T14:18:03;100177.41;;;6.52
48854;BMP280;34673;52.808;17.856;2022-11-15T14:20:39;100174.81;;;6.50
48854;BMP280;34673;52.808;17.856;2022-11-15T14:25:57;100183.31;;;6.40
48854;BMP280;34673;52.808;17.856;2022-11-15T14:30:55;100168.75;;;6.39
48854;BMP280;34673;52.808;17.856;2022-11-15T14:33:30;100161.03;;;6.39
48854;BMP280;34673;52.808;17.856;2022-11-15T14:36:13;100151.63;;;6.38
48854;BMP280;34673;52.808;17.856;2022-11-15T14:38:42;100149.06;;;6.38
48854;BMP280;34673;52.808;17.856;2022-11-15T14:41:24;100152.50;;;6.43
48854;BMP280;34673;52.808;17.856;2022-11-15T14:43:53;100149.09;;;6.47
48854;BMP280;34673;52.808;17.856;2022-11-15T14:46:20;100143.97;;;6.50
48854;BMP280;34673;52.808;17.856;2022-11-15T14:48:48;100145.69;;;6.51
48854;BMP280;34673;52.808;17.856;2022-11-15T14:51:17;100147.41;;;6.52
48854;BMP280;34673;52.808;17.856;2022-11-15T14:53:45;100145.69;;;6.51
48854;BMP280;34673;52.808;17.856;2022-11-15T14:56:13;100144.84;;;6.52
48854;BMP280;34673;52.808;17.856;2022-11-15T14:58:41;100147.44;;;6.55
48854;BMP280;34673;52.808;17.856;2022-11-15T15:01:19;100137.13;;;6.52
48854;BMP280;34673;52.808;17.856;2022-11-15T15:03:47;100142.28;;;6.52
48854;BMP280;34673;52.808;17.856;2022-11-15T15:06:15;100140.53;;;6.51
48854;BMP280;34673;52.808;17.856;2022-11-15T15:08:45;100147.41;;;6.49
48854;BMP280;34673;52.808;17.856;2022-11-15T15:11:22;100140.50;;;6.42
48854;BMP280;34673;52.808;17.856;2022-11-15T15:13:50;100149.09;;;6.50
48854;BMP280;34673;52.808;17.856;2022-11-15T15:16:19;100139.66;;;6.41
48854;BMP280;34673;52.808;17.856;2022-11-15T15:18:47;100149.06;;;6.41
48854;BMP280;34673;52.808;17.856;2022-11-15T15:21:23;100140.44;;;6.30
48854;BMP280;34673;52.808;17.856;2022-11-15T15:23:52;100142.13;;;6.25
48854;BMP280;34673;52.808;17.856;2022-11-15T15:26:22;100147.22;;;6.21
48854;BMP280;34673;52.808;17.856;2022-11-15T15:28:50;100139.50;;;6.18
48854;BMP280;34673;52.808;17.856;2022-11-15T15:31:19;100142.94;;;6.19
48854;BMP280;34673;52.808;17.856;2022-11-15T15:33:46;100140.38;;;6.17
48854;BMP280;34673;52.808;17.856;2022-11-15T15:36:17;100140.38;;;6.17
48854;BMP280;34673;52.808;17.856;2022-11-15T15:38:45;100152.34;;;6.18
48854;BMP280;34673;52.808;17.856;2022-11-15T15:41:15;100140.41;;;6.24
48854;BMP280;34673;52.808;17.856;2022-11-15T15:43:43;100133.56;;;6.29
48854;BMP280;34673;52.808;17.856;2022-11-15T15:46:13;100132.75;;;6.31
48854;BMP280;34673;52.808;17.856;2022-11-15T15:48:41;100092.34;;;6.04
48854;BMP280;34673;52.808;17.856;2022-11-15T15:51:08;100119.84;;;6.20
48854;BMP280;34673;52.808;17.856;2022-11-15T15:53:46;100130.13;;;6.25
48854;BMP280;34673;52.808;17.856;2022-11-15T15:56:13;100126.72;;;6.25
48854;BMP280;34673;52.808;17.856;2022-11-15T15:58:41;100119.84;;;6.24
48854;BMP280;34673;52.808;17.856;2022-11-15T16:01:08;100107.88;;;6.26
48854;BMP280;34673;52.808;17.856;2022-11-15T16:03:36;100116.47;;;6.31
48854;BMP280;34673;52.808;17.856;2022-11-15T16:06:03;100113.03;;;6.32
48854;BMP280;34673;52.808;17.856;2022-11-15T16:08:32;100113.03;;;6.29
48854;BMP280;34673;52.808;17.856;2022-11-15T16:11:19;100108.75;;;6.29
48854;BMP280;34673;52.808;17.856;2022-11-15T16:13:47;100101.91;;;6.28
48854;BMP280;34673;52.808;17.856;2022-11-15T16:16:21;100095.84;;;6.18
48854;BMP280;34673;52.808;17.856;2022-11-15T16:18:49;100093.28;;;6.18
48854;BMP280;34673;52.808;17.856;2022-11-15T16:21:16;100095.81;;;6.15
48854;BMP280;34673;52.808;17.856;2022-11-15T16:23:43;100097.53;;;6.13
48854;BMP280;34673;52.808;17.856;2022-11-15T16:26:27;100110.38;;;6.15
48854;BMP280;34673;52.808;17.856;2022-11-15T16:28:55;100111.25;;;6.15
48854;BMP280;34673;52.808;17.856;2022-11-15T16:31:23;100125.81;;;6.18
48854;BMP280;34673;52.808;17.856;2022-11-15T16:33:50;100121.53;;;6.18
48854;BMP280;34673;52.808;17.856;2022-11-15T16:38:45;100119.81;;;6.17
48854;BMP280;34673;52.808;17.856;2022-11-15T16:41:13;100126.66;;;6.18
48854;BMP280;34673;52.808;17.856;2022-11-15T16:43:41;100121.47;;;6.06
48854;BMP280;34673;52.808;17.856;2022-11-15T16:46:14;100138.56;;;6.04
48854;BMP280;34673;52.808;17.856;2022-11-15T16:48:42;100141.13;;;6.01
48854;BMP280;34673;52.808;17.856;2022-11-15T16:51:10;100135.94;;;5.99
48854;BMP280;34673;52.808;17.856;2022-11-15T16:53:38;100141.91;;;5.97
48854;BMP280;34673;52.808;17.856;2022-11-15T16:56:27;100139.38;;;5.98
48854;BMP280;34673;52.808;17.856;2022-11-15T16:58:59;100141.13;;;6.03
48854;BMP280;34673;52.808;17.856;2022-11-15T17:01:31;100136.84;;;6.03
48854;BMP280;34673;52.808;17.856;2022-11-15T17:03:59;100130.03;;;6.08
48854;BMP280;34673;52.808;17.856;2022-11-15T17:06:39;100127.47;;;6.08
48854;BMP280;34673;52.808;17.856;2022-11-15T17:09:16;100113.72;;;6.02
48854;BMP280;34673;52.808;17.856;2022-11-15T17:11:44;100124.94;;;6.11
48854;BMP280;34673;52.808;17.856;2022-11-15T17:14:12;100138.66;;;6.16
48854;BMP280;34673;52.808;17.856;2022-11-15T17:16:39;100117.19;;;6.10
48854;BMP280;34673;52.808;17.856;2022-11-15T17:19:16;100128.38;;;6.16
48854;BMP280;34673;52.808;17.856;2022-11-15T17:21:45;100106.06;;;6.06
48854;BMP280;34673;52.808;17.856;2022-11-15T17:24:13;100130.06;;;6.11
48854;BMP280;34673;52.808;17.856;2022-11-15T17:26:40;100115.44;;;6.01
48854;BMP280;34673;52.808;17.856;2022-11-15T17:29:08;100114.59;;;6.05
48854;BMP280;34673;52.808;17.856;2022-11-15T17:31:37;100120.56;;;6.01
48854;BMP280;34673;52.808;17.856;2022-11-15T17:34:05;100109.34;;;5.93